sensor_id;sensor_type;location;lat;lon;timestamp;P1;durP1;ratioP1;P2;durP2;ratioP2
29210;SDS011;16250;49.932;10.980;2023-02-22T00:00:11;41.58;;;38.95;;
29210;SDS011;16250;49.932;10.980;2023-02-22T00:02:50;44.85;;;42.10;;
29210;SDS011;16250;49.932;10.980;2023-02-22T00:05:23;48.78;;;45.50;;
29210;SDS011;16250;49.932;10.980;2023-02-22T00:07:50;46.65;;;43.67;;
29210;SDS011;16250;49.932;10.980;2023-02-22T00:10:15;45.58;;;42.65;;
29210;SDS011;16250;49.932;10.980;2023-02-22T00:12:45;40.22;;;37.47;;
29210;SDS011;16250;49.932;10.980;2023-02-22T00:15:12;40.70;;;38.00;;
29210;SDS011;16250;49.932;10.980;2023-02-22T00:17:38;39.95;;;37.55;;
29210;SDS011;16250;49.932;10.980;2023-02-22T00:20:04;36.92;;;34.53;;
29210;SDS011;16250;49.932;10.980;2023-02-22T00:22:30;39.55;;;36.85;;
29210;SDS011;16250;49.932;10.980;2023-02-22T00:24:56;37.67;;;35.35;;
29210;SDS011;16250;49.932;10.980;2023-02-22T00:27:22;34.92;;;32.83;;
29210;SDS011;16250;49.932;10.980;2023-02-22T00:29:48;39.65;;;37.05;;
29210;SDS011;16250;49.932;10.980;2023-02-22T00:32:13;37.95;;;35.45;;
29210;SDS011;16250;49.932;10.980;2023-02-22T00:34:39;35.67;;;33.50;;
29210;SDS011;16250;49.932;10.980;2023-02-22T00:37:05;40.80;;;38.10;;
29210;SDS011;16250;49.932;10.980;2023-02-22T00:39:30;36.72;;;34.33;;
29210;SDS011;16250;49.932;10.980;2023-02-22T00:41:56;40.65;;;37.88;;
29210;SDS011;16250;49.932;10.980;2023-02-22T00:44:21;38.58;;;36.17;;
29210;SDS011;16250;49.932;10.980;2023-02-22T00:46:47;36.88;;;34.58;;
29210;SDS011;16250;49.932;10.980;2023-02-22T00:49:14;38.67;;;36.17;;
29210;SDS011;16250;49.932;10.980;2023-02-22T00:51:40;37.50;;;35.08;;
29210;SDS011;16250;49.932;10.980;2023-02-22T00:54:06;37.97;;;35.55;;
29210;SDS011;16250;49.932;10.980;2023-02-22T00:56:32;40.25;;;37.80;;
29210;SDS011;16250;49.932;10.980;2023-02-22T00:58:58;34.92;;;32.72;;
29210;SDS011;16250;49.932;10.980;2023-02-22T01:01:25;38.53;;;36.28;;
29210;SDS011;16250;49.932;10.980;2023-02-22T01:03:51;41.55;;;38.97;;
29210;SDS011;16250;49.932;10.980;2023-02-22T01:06:16;37.97;;;35.65;;
29210;SDS011;16250;49.932;10.980;2023-02-22T01:08:43;35.47;;;33.30;;
29210;SDS011;16250;49.932;10.980;2023-02-22T01:11:09;38.22;;;36.05;;
29210;SDS011;16250;49.932;10.980;2023-02-22T01:13:34;42.05;;;39.45;;
29210;SDS011;16250;49.932;10.980;2023-02-22T01:16:00;38.75;;;35.92;;
29210;SDS011;16250;49.932;10.980;2023-02-22T01:18:25;34.63;;;32.42;;
29210;SDS011;16250;49.932;10.980;2023-02-22T01:20:51;34.25;;;32.15;;
29210;SDS011;16250;49.932;10.980;2023-02-22T01:23:16;35.38;;;33.17;;
29210;SDS011;16250;49.932;10.980;2023-02-22T01:25:42;35.08;;;32.88;;
29210;SDS011;16250;49.932;10.980;2023-02-22T01:28:07;35.13;;;33.05;;
29210;SDS011;16250;49.932;10.980;2023-02-22T01:30:33;36.97;;;34.78;;
29210;SDS011;16250;49.932;10.980;2023-02-22T01:33:00;35.08;;;33.10;;
29210;SDS011;16250;49.932;10.980;2023-02-22T01:35:28;34.28;;;32.33;;
29210;SDS011;16250;49.932;10.980;2023-02-22T01:37:55;36.53;;;34.42;;
29210;SDS011;16250;49.932;10.980;2023-02-22T01:40:31;33.10;;;31.20;;
29210;SDS011;16250;49.932;10.980;2023-02-22T01:42:59;34.83;;;33.03;;
29210;SDS011;16250;49.932;10.980;2023-02-22T01:48:03;34.08;;;32.38;;
29210;SDS011;16250;49.932;10.980;2023-02-22T01:50:31;75.72;;;37.47;;
29210;SDS011;16250;49.932;10.980;2023-02-22T01:52:59;79.35;;;38.80;;
29210;SDS011;16250;49.932;10.980;2023-02-22T01:55:24;41.80;;;38.90;;
29210;SDS011;16250;49.932;10.980;2023-02-22T01:57:50;38.30;;;36.13;;
29210;SDS011;16250;49.932;10.980;2023-02-22T02:00:17;43.58;;;40.15;;
29210;SDS011;16250;49.932;10.980;2023-02-22T02:02:49;35.35;;;33.03;;
29210;SDS011;16250;49.932;10.980;2023-02-22T02:05:21;37.53;;;35.22;;
29210;SDS011;16250;49.932;10.980;2023-02-22T02:07:48;37.72;;;35.42;;
29210;SDS011;16250;49.932;10.980;2023-02-22T02:10:17;33.90;;;31.83;;
29210;SDS011;16250;49.932;10.980;2023-02-22T02:12:44;34.38;;;32.20;;
29210;SDS011;16250;49.932;10.980;2023-02-22T02:15:28;35.00;;;32.72;;
29210;SDS011;16250;49.932;10.980;2023-02-22T02:17:59;38.80;;;36.30;;
29210;SDS011;16250;49.932;10.980;2023-02-22T02:20:41;36.33;;;34.05;;
29210;SDS011;16250;49.932;10.980;2023-02-22T02:37:24;47.88;;;44.17;;
29210;SDS011;16250;49.932;10.980;2023-02-22T02:43:30;41.83;;;39.03;;
29210;SDS011;16250;49.932;10.980;2023-02-22T02:48:20;37.50;;;34.95;;
29210;SDS011;16250;49.932;10.980;2023-02-22T02:50:49;36.22;;;33.90;;
29210;SDS011;16250;49.932;10.980;2023-02-22T02:53:17;36.55;;;34.25;;
29210;SDS011;16250;49.932;10.980;2023-02-22T02:55:45;35.53;;;33.30;;
29210;SDS011;16250;49.932;10.980;2023-02-22T02:58:15;37.00;;;34.45;;
29210;SDS011;16250;49.932;10.980;2023-02-22T03:00:45;37.60;;;34.70;;
29210;SDS011;16250;49.932;10.980;2023-02-22T03:08:42;317.55;;;47.60;;
29210;SDS011;16250;49.932;10.980;2023-02-22T03:11:12;335.33;;;58.10;;
29210;SDS011;16250;49.932;10.980;2023-02-22T03:19:17;126.90;;;52.80;;
29210;SDS011;16250;49.932;10.980;2023-02-22T03:24:24;110.75;;;53.40;;
29210;SDS011;16250;49.932;10.980;2023-02-22T03:29:28;378.70;;;63.97;;
29210;SDS011;16250;49.932;10.980;2023-02-22T03:31:55;278.38;;;76.13;;
29210;SDS011;16250;49.932;10.980;2023-02-22T03:34:28;237.93;;;52.08;;
29210;SDS011;16250;49.932;10.980;2023-02-22T03:37:06;389.45;;;68.82;;
29210;SDS011;16250;49.932;10.980;2023-02-22T03:39:39;581.17;;;114.32;;
29210;SDS011;16250;49.932;10.980;2023-02-22T03:42:07;584.50;;;95.13;;
29210;SDS011;16250;49.932;10.980;2023-02-22T03:44:37;510.70;;;118.90;;
29210;SDS011;16250;49.932;10.980;2023-02-22T03:47:05;217.85;;;41.03;;
29210;SDS011;16250;49.932;10.980;2023-02-22T03:49:35;238.15;;;43.85;;
29210;SDS011;16250;49.932;10.980;2023-02-22T03:52:03;373.33;;;63.83;;
29210;SDS011;16250;49.932;10.980;2023-02-22T03:54:31;292.92;;;51.53;;
29210;SDS011;16250;49.932;10.980;2023-02-22T03:57:03;329.58;;;68.38;;
29210;SDS011;16250;49.932;10.980;2023-02-22T03:59:35;539.67;;;89.45;;
29210;SDS011;16250;49.932;10.980;2023-02-22T04:02:01;440.08;;;70.60;;
29210;SDS011;16250;49.932;10.980;2023-02-22T04:04:26;304.52;;;52.88;;
29210;SDS011;16250;49.932;10.980;2023-02-22T04:06:52;337.23;;;50.08;;
29210;SDS011;16250;49.932;10.980;2023-02-22T04:09:17;243.10;;;62.03;;
29210;SDS011;16250;49.932;10.980;2023-02-22T04:11:43;281.00;;;53.50;;
29210;SDS011;16250;49.932;10.980;2023-02-22T04:14:09;248.20;;;71.30;;
29210;SDS011;16250;49.932;10.980;2023-02-22T04:16:35;194.27;;;50.45;;
29210;SDS011;16250;49.932;10.980;2023-02-22T04:19:04;230.38;;;57.20;;
29210;SDS011;16250;49.932;10.980;2023-02-22T04:21:31;420.40;;;92.93;;
29210;SDS011;16250;49.932;10.980;2023-02-22T04:23:57;108.65;;;33.92;;
29210;SDS011;16250;49.932;10.980;2023-02-22T04:26:23;113.13;;;38.20;;
29210;SDS011;16250;49.932;10.980;2023-02-22T04:28:53;629.33;;;105.97;;
29210;SDS011;16250;49.932;10.980;2023-02-22T04:31:21;516.33;;;78.55;;
29210;SDS011;16250;49.932;10.980;2023-02-22T04:33:48;191.63;;;51.63;;
29210;SDS011;16250;49.932;10.980;2023-02-22T04:36:17;472.50;;;64.07;;
29210;SDS011;16250;49.932;10.980;2023-02-22T04:38:43;236.77;;;46.35;;
29210;SDS011;16250;49.932;10.980;2023-02-22T04:41:09;222.43;;;38.25;;
29210;SDS011;16250;49.932;10.980;2023-02-22T04:43:35;308.17;;;37.13;;
29210;SDS011;16250;49.932;10.980;2023-02-22T04:46:10;291.35;;;40.15;;
29210;SDS011;16250;49.932;10.980;2023-02-22T04:48:36;460.23;;;65.70;;
29210;SDS011;16250;49.932;10.980;2023-02-22T04:51:02;428.63;;;57.53;;
29210;SDS011;16250;49.932;10.980;2023-02-22T04:53:29;475.60;;;98.85;;
29210;SDS011;16250;49.932;10.980;2023-02-22T04:55:54;369.25;;;83.05;;
29210;SDS011;16250;49.932;10.980;2023-02-22T04:58:20;301.40;;;62.00;;
29210;SDS011;16250;49.932;10.980;2023-02-22T05:00:46;196.45;;;46.22;;
29210;SDS011;16250;49.932;10.980;2023-02-22T05:03:12;494.80;;;54.65;;
29210;SDS011;16250;49.932;10.980;2023-02-22T05:05:37;565.97;;;83.80;;
29210;SDS011;16250;49.932;10.980;2023-02-22T05:08:03;648.80;;;140.38;;
29210;SDS011;16250;49.932;10.980;2023-02-22T05:10:28;766.20;;;149.20;;
29210;SDS011;16250;49.932;10.980;2023-02-22T05:12:54;346.15;;;79.88;;
29210;SDS011;16250;49.932;10.980;2023-02-22T05:15:20;613.92;;;102.50;;
29210;SDS011;16250;49.932;10.980;2023-02-22T05:17:46;297.73;;;69.68;;
29210;SDS011;16250;49.932;10.980;2023-02-22T05:20:28;158.43;;;46.75;;
29210;SDS011;16250;49.932;10.980;2023-02-22T05:22:55;174.68;;;42.10;;
29210;SDS011;16250;49.932;10.980;2023-02-22T05:25:21;339.60;;;74.35;;
29210;SDS011;16250;49.932;10.980;2023-02-22T05:27:48;512.10;;;77.45;;
29210;SDS011;16250;49.932;10.980;2023-02-22T05:30:17;573.92;;;260.13;;
29210;SDS011;16250;49.932;10.980;2023-02-22T05:32:44;499.85;;;113.80;;
29210;SDS011;16250;49.932;10.980;2023-02-22T05:35:10;473.75;;;86.00;;
29210;SDS011;16250;49.932;10.980;2023-02-22T05:37:35;491.05;;;82.40;;
29210;SDS011;16250;49.932;10.980;2023-02-22T05:40:01;233.30;;;37.22;;
29210;SDS011;16250;49.932;10.980;2023-02-22T05:42:26;309.35;;;61.28;;
29210;SDS011;16250;49.932;10.980;2023-02-22T05:44:52;120.05;;;32.22;;
29210;SDS011;16250;49.932;10.980;2023-02-22T05:47:17;135.65;;;44.50;;
29210;SDS011;16250;49.932;10.980;2023-02-22T05:49:43;163.73;;;34.92;;
29210;SDS011;16250;49.932;10.980;2023-02-22T05:52:09;83.80;;;17.60;;
29210;SDS011;16250;49.932;10.980;2023-02-22T05:54:34;102.57;;;40.65;;
29210;SDS011;16250;49.932;10.980;2023-02-22T05:56:59;51.10;;;26.17;;
29210;SDS011;16250;49.932;10.980;2023-02-22T05:59:25;54.50;;;29.05;;
29210;SDS011;16250;49.932;10.980;2023-02-22T06:01:51;46.67;;;30.17;;
29210;SDS011;16250;49.932;10.980;2023-02-22T06:04:17;87.45;;;34.85;;
29210;SDS011;16250;49.932;10.980;2023-02-22T06:06:42;71.65;;;33.97;;
29210;SDS011;16250;49.932;10.980;2023-02-22T06:09:07;99.57;;;39.90;;
29210;SDS011;16250;49.932;10.980;2023-02-22T06:11:33;250.13;;;55.17;;
29210;SDS011;16250;49.932;10.980;2023-02-22T06:13:58;59.58;;;23.63;;
29210;SDS011;16250;49.932;10.980;2023-02-22T06:16:24;78.57;;;39.78;;
29210;SDS011;16250;49.932;10.980;2023-02-22T06:18:49;83.22;;;39.63;;
29210;SDS011;16250;49.932;10.980;2023-02-22T06:21:15;71.63;;;29.92;;
29210;SDS011;16250;49.932;10.980;2023-02-22T06:23:41;101.57;;;42.10;;
29210;SDS011;16250;49.932;10.980;2023-02-22T06:26:06;165.15;;;38.25;;
29210;SDS011;16250;49.932;10.980;2023-02-22T06:28:32;91.95;;;33.85;;
29210;SDS011;16250;49.932;10.980;2023-02-22T06:30:57;171.68;;;54.15;;
29210;SDS011;16250;49.932;10.980;2023-02-22T06:33:22;211.82;;;57.42;;
29210;SDS011;16250;49.932;10.980;2023-02-22T06:35:48;90.97;;;44.03;;
29210;SDS011;16250;49.932;10.980;2023-02-22T06:38:22;90.40;;;41.42;;
29210;SDS011;16250;49.932;10.980;2023-02-22T06:40:48;103.00;;;44.92;;
29210;SDS011;16250;49.932;10.980;2023-02-22T06:43:14;111.47;;;45.85;;
29210;SDS011;16250;49.932;10.980;2023-02-22T06:45:39;149.57;;;44.85;;
29210;SDS011;16250;49.932;10.980;2023-02-22T06:48:05;79.28;;;35.60;;
29210;SDS011;16250;49.932;10.980;2023-02-22T06:50:30;182.90;;;55.67;;
29210;SDS011;16250;49.932;10.980;2023-02-22T06:52:56;91.65;;;32.75;;
29210;SDS011;16250;49.932;10.980;2023-02-22T06:55:24;72.80;;;35.35;;
29210;SDS011;16250;49.932;10.980;2023-02-22T06:57:53;58.42;;;31.42;;
29210;SDS011;16250;49.932;10.980;2023-02-22T07:00:19;56.40;;;32.00;;
29210;SDS011;16250;49.932;10.980;2023-02-22T07:02:46;54.63;;;33.35;;
29210;SDS011;16250;49.932;10.980;2023-02-22T07:05:16;36.38;;;32.63;;
29210;SDS011;16250;49.932;10.980;2023-02-22T07:07:43;52.17;;;38.58;;
29210;SDS011;16250;49.932;10.980;2023-02-22T07:10:14;40.25;;;37.20;;
29210;SDS011;16250;49.932;10.980;2023-02-22T07:12:44;43.08;;;39.75;;
29210;SDS011;16250;49.932;10.980;2023-02-22T07:15:09;36.47;;;33.65;;
29210;SDS011;16250;49.932;10.980;2023-02-22T07:17:35;49.35;;;45.20;;
29210;SDS011;16250;49.932;10.980;2023-02-22T07:20:00;58.88;;;53.50;;
29210;SDS011;16250;49.932;10.980;2023-02-22T07:22:25;43.92;;;40.53;;
29210;SDS011;16250;49.932;10.980;2023-02-22T07:24:51;39.03;;;36.08;;
29210;SDS011;16250;49.932;10.980;2023-02-22T07:27:16;37.25;;;34.58;;
29210;SDS011;16250;49.932;10.980;2023-02-22T07:29:42;36.10;;;33.80;;
29210;SDS011;16250;49.932;10.980;2023-02-22T07:32:07;38.25;;;35.42;;
29210;SDS011;16250;49.932;10.980;2023-02-22T07:34:33;36.03;;;33.30;;
29210;SDS011;16250;49.932;10.980;2023-02-22T07:36:59;52.05;;;32.55;;
29210;SDS011;16250;49.932;10.980;2023-02-22T07:39:24;53.88;;;38.17;;
29210;SDS011;16250;49.932;10.980;2023-02-22T07:41:51;37.97;;;34.60;;
29210;SDS011;16250;49.932;10.980;2023-02-22T07:44:22;37.15;;;33.65;;
29210;SDS011;16250;49.932;10.980;2023-02-22T07:46:48;39.88;;;36.80;;
29210;SDS011;16250;49.932;10.980;2023-02-22T07:49:14;45.53;;;41.28;;
29210;SDS011;16250;49.932;10.980;2023-02-22T07:51:40;44.35;;;40.97;;
29210;SDS011;16250;49.932;10.980;2023-02-22T07:54:05;43.67;;;40.45;;
29210;SDS011;16250;49.932;10.980;2023-02-22T07:56:30;40.38;;;36.78;;
29210;SDS011;16250;49.932;10.980;2023-02-22T07:58:56;53.10;;;42.90;;
29210;SDS011;16250;49.932;10.980;2023-02-22T08:01:21;44.92;;;38.28;;
29210;SDS011;16250;49.932;10.980;2023-02-22T08:03:48;58.90;;;49.38;;
29210;SDS011;16250;49.932;10.980;2023-02-22T08:06:14;49.90;;;45.47;;
29210;SDS011;16250;49.932;10.980;2023-02-22T08:08:39;80.93;;;52.25;;
29210;SDS011;16250;49.932;10.980;2023-02-22T08:11:04;42.55;;;38.88;;
29210;SDS011;16250;49.932;10.980;2023-02-22T08:13:30;46.63;;;42.60;;
29210;SDS011;16250;49.932;10.980;2023-02-22T08:15:55;43.72;;;40.40;;
29210;SDS011;16250;49.932;10.980;2023-02-22T08:18:21;44.78;;;41.05;;
29210;SDS011;16250;49.932;10.980;2023-02-22T08:20:48;44.15;;;40.78;;
29210;SDS011;16250;49.932;10.980;2023-02-22T08:23:16;42.53;;;38.72;;
29210;SDS011;16250;49.932;10.980;2023-02-22T08:25:42;45.03;;;41.00;;
29210;SDS011;16250;49.932;10.980;2023-02-22T08:28:09;48.60;;;44.40;;
29210;SDS011;16250;49.932;10.980;2023-02-22T08:30:36;43.90;;;40.45;;
29210;SDS011;16250;49.932;10.980;2023-02-22T08:33:02;42.33;;;39.28;;
29210;SDS011;16250;49.932;10.980;2023-02-22T08:35:28;50.85;;;45.42;;
29210;SDS011;16250;49.932;10.980;2023-02-22T08:37:55;47.92;;;43.58;;
29210;SDS011;16250;49.932;10.980;2023-02-22T08:40:23;48.72;;;44.67;;
29210;SDS011;16250;49.932;10.980;2023-02-22T08:42:50;45.47;;;41.97;;
29210;SDS011;16250;49.932;10.980;2023-02-22T08:45:16;47.60;;;43.83;;
29210;SDS011;16250;49.932;10.980;2023-02-22T08:47:41;45.00;;;41.65;;
29210;SDS011;16250;49.932;10.980;2023-02-22T08:50:09;48.65;;;44.85;;
29210;SDS011;16250;49.932;10.980;2023-02-22T08:52:40;51.55;;;47.63;;
29210;SDS011;16250;49.932;10.980;2023-02-22T08:55:06;49.70;;;45.78;;
29210;SDS011;16250;49.932;10.980;2023-02-22T08:57:31;49.00;;;45.47;;
29210;SDS011;16250;49.932;10.980;2023-02-22T08:59:57;48.58;;;44.90;;
29210;SDS011;16250;49.932;10.980;2023-02-22T09:02:22;50.28;;;46.17;;
29210;SDS011;16250;49.932;10.980;2023-02-22T09:04:49;49.83;;;45.47;;
29210;SDS011;16250;49.932;10.980;2023-02-22T09:07:14;53.42;;;48.35;;
29210;SDS011;16250;49.932;10.980;2023-02-22T09:09:44;53.38;;;48.95;;
29210;SDS011;16250;49.932;10.980;2023-02-22T09:12:10;53.78;;;49.42;;
29210;SDS011;16250;49.932;10.980;2023-02-22T09:14:35;52.05;;;47.67;;
29210;SDS011;16250;49.932;10.980;2023-02-22T09:17:00;57.15;;;51.65;;
29210;SDS011;16250;49.932;10.980;2023-02-22T09:19:26;55.20;;;50.50;;
29210;SDS011;16250;49.932;10.980;2023-02-22T09:21:55;52.80;;;48.63;;
29210;SDS011;16250;49.932;10.980;2023-02-22T09:24:21;51.80;;;47.67;;
29210;SDS011;16250;49.932;10.980;2023-02-22T09:26:47;55.97;;;51.67;;
29210;SDS011;16250;49.932;10.980;2023-02-22T09:29:17;51.50;;;47.75;;
29210;SDS011;16250;49.932;10.980;2023-02-22T09:31:47;52.40;;;48.65;;
29210;SDS011;16250;49.932;10.980;2023-02-22T09:34:13;51.05;;;47.53;;
29210;SDS011;16250;49.932;10.980;2023-02-22T09:36:40;50.28;;;46.88;;
29210;SDS011;16250;49.932;10.980;2023-02-22T09:39:06;50.70;;;47.30;;
29210;SDS011;16250;49.932;10.980;2023-02-22T09:41:35;54.97;;;51.25;;
29210;SDS011;16250;49.932;10.980;2023-02-22T09:44:16;48.92;;;45.63;;
29210;SDS011;16250;49.932;10.980;2023-02-22T09:46:44;52.20;;;48.50;;
29210;SDS011;16250;49.932;10.980;2023-02-22T09:51:39;53.47;;;50.00;;
29210;SDS011;16250;49.932;10.980;2023-02-22T09:54:10;53.90;;;50.30;;
29210;SDS011;16250;49.932;10.980;2023-02-22T09:56:39;55.13;;;51.60;;
29210;SDS011;16250;49.932;10.980;2023-02-22T09:59:05;56.42;;;52.83;;
29210;SDS011;16250;49.932;10.980;2023-02-22T10:04:03;53.67;;;50.35;;
29210;SDS011;16250;49.932;10.980;2023-02-22T10:06:29;55.15;;;51.50;;
29210;SDS011;16250;49.932;10.980;2023-02-22T10:08:58;52.53;;;49.13;;
29210;SDS011;16250;49.932;10.980;2023-02-22T10:11:33;55.70;;;52.25;;
29210;SDS011;16250;49.932;10.980;2023-02-22T10:19:24;56.53;;;53.22;;
29210;SDS011;16250;49.932;10.980;2023-02-22T10:24:43;55.13;;;51.83;;
29210;SDS011;16250;49.932;10.980;2023-02-22T10:27:13;54.45;;;51.15;;
29210;SDS011;16250;49.932;10.980;2023-02-22T10:29:45;55.60;;;52.40;;
29210;SDS011;16250;49.932;10.980;2023-02-22T10:32:14;53.50;;;50.30;;
29210;SDS011;16250;49.932;10.980;2023-02-22T10:34:45;55.45;;;52.35;;
29210;SDS011;16250;49.932;10.980;2023-02-22T10:37:15;51.55;;;48.70;;
29210;SDS011;16250;49.932;10.980;2023-02-22T10:39:45;51.83;;;48.92;;
29210;SDS011;16250;49.932;10.980;2023-02-22T10:42:12;48.75;;;45.97;;
29210;SDS011;16250;49.932;10.980;2023-02-22T10:44:37;45.85;;;43.08;;
29210;SDS011;16250;49.932;10.980;2023-02-22T10:47:10;39.05;;;36.55;;
29210;SDS011;16250;49.932;10.980;2023-02-22T10:49:37;34.50;;;32.30;;
29210;SDS011;16250;49.932;10.980;2023-02-22T10:52:11;29.50;;;27.50;;
29210;SDS011;16250;49.932;10.980;2023-02-22T10:54:40;23.98;;;22.15;;
29210;SDS011;16250;49.932;10.980;2023-02-22T10:57:06;24.10;;;22.20;;
29210;SDS011;16250;49.932;10.980;2023-02-22T10:59:33;18.70;;;17.15;;
29210;SDS011;16250;49.932;10.980;2023-02-22T11:02:00;17.45;;;16.05;;
29210;SDS011;16250;49.932;10.980;2023-02-22T11:04:43;16.73;;;15.43;;
29210;SDS011;16250;49.932;10.980;2023-02-22T11:07:19;16.10;;;14.70;;
29210;SDS011;16250;49.932;10.980;2023-02-22T11:10:07;28.15;;;26.35;;
29210;SDS011;16250;49.932;10.980;2023-02-22T11:12:34;27.05;;;24.95;;
29210;SDS011;16250;49.932;10.980;2023-02-22T11:15:18;26.70;;;24.50;;
29210;SDS011;16250;49.932;10.980;2023-02-22T11:17:51;25.33;;;23.33;;
29210;SDS011;16250;49.932;10.980;2023-02-22T11:20:23;29.05;;;27.05;;
29210;SDS011;16250;49.932;10.980;2023-02-22T11:22:53;27.88;;;25.98;;
29210;SDS011;16250;49.932;10.980;2023-02-22T11:25:21;24.38;;;22.50;;
29210;SDS011;16250;49.932;10.980;2023-02-22T11:27:49;22.42;;;20.83;;
29210;SDS011;16250;49.932;10.980;2023-02-22T11:37:52;14.90;;;13.60;;
29210;SDS011;16250;49.932;10.980;2023-02-22T11:40:20;17.77;;;16.27;;
29210;SDS011;16250;49.932;10.980;2023-02-22T11:42:47;17.15;;;15.68;;
29210;SDS011;16250;49.932;10.980;2023-02-22T11:45:15;17.05;;;15.55;;
29210;SDS011;16250;49.932;10.980;2023-02-22T11:47:56;15.27;;;13.85;;
29210;SDS011;16250;49.932;10.980;2023-02-22T11:58:38;14.65;;;13.25;;
29210;SDS011;16250;49.932;10.980;2023-02-22T12:06:27;13.07;;;11.85;;
29210;SDS011;16250;49.932;10.980;2023-02-22T12:09:56;12.30;;;11.10;;
29210;SDS011;16250;49.932;10.980;2023-02-22T12:14:56;10.48;;;8.90;;
29210;SDS011;16250;49.932;10.980;2023-02-22T12:17:51;8.68;;;7.38;;
29210;SDS011;16250;49.932;10.980;2023-02-22T12:23:04;7.50;;;6.13;;
29210;SDS011;16250;49.932;10.980;2023-02-22T12:25:38;8.13;;;5.97;;
29210;SDS011;16250;49.932;10.980;2023-02-22T12:30:49;8.52;;;6.38;;
29210;SDS011;16250;49.932;10.980;2023-02-22T12:33:24;7.30;;;5.63;;
29210;SDS011;16250;49.932;10.980;2023-02-22T12:35:52;6.70;;;5.80;;
29210;SDS011;16250;49.932;10.980;2023-02-22T12:41:06;8.43;;;6.00;;
29210;SDS011;16250;49.932;10.980;2023-02-22T12:44:01;7.47;;;5.78;;
29210;SDS011;16250;49.932;10.980;2023-02-22T12:46:43;8.05;;;6.05;;
29210;SDS011;16250;49.932;10.980;2023-02-22T12:49:20;7.10;;;5.50;;
29210;SDS011;16250;49.932;10.980;2023-02-22T12:54:23;9.82;;;6.10;;
29210;SDS011;16250;49.932;10.980;2023-02-22T13:02:20;6.28;;;5.25;;
29210;SDS011;16250;49.932;10.980;2023-02-22T13:04:55;8.35;;;6.10;;
29210;SDS011;16250;49.932;10.980;2023-02-22T13:13:09;7.15;;;5.07;;
29210;SDS011;16250;49.932;10.980;2023-02-22T13:19:04;6.10;;;5.00;;
29210;SDS011;16250;49.932;10.980;2023-02-22T13:29:52;9.23;;;5.47;;
29210;SDS011;16250;49.932;10.980;2023-02-22T13:35:13;7.78;;;5.47;;
29210;SDS011;16250;49.932;10.980;2023-02-22T13:38:07;11.90;;;7.38;;
29210;SDS011;16250;49.932;10.980;2023-02-22T13:40:52;9.07;;;6.57;;
29210;SDS011;16250;49.932;10.980;2023-02-22T13:54:53;6.53;;;5.43;;
29210;SDS011;16250;49.932;10.980;2023-02-22T13:57:35;9.43;;;6.03;;
29210;SDS011;16250;49.932;10.980;2023-02-22T14:06:48;7.50;;;5.03;;
29210;SDS011;16250;49.932;10.980;2023-02-22T14:09:12;6.47;;;5.38;;
29210;SDS011;16250;49.932;10.980;2023-02-22T14:12:06;7.75;;;5.22;;
29210;SDS011;16250;49.932;10.980;2023-02-22T14:17:42;8.95;;;5.38;;
29210;SDS011;16250;49.932;10.980;2023-02-22T14:20:20;6.78;;;5.45;;
29210;SDS011;16250;49.932;10.980;2023-02-22T14:22:56;6.72;;;4.80;;
29210;SDS011;16250;49.932;10.980;2023-02-22T14:25:39;5.70;;;4.85;;
29210;SDS011;16250;49.932;10.980;2023-02-22T14:31:09;9.25;;;5.25;;
29210;SDS011;16250;49.932;10.980;2023-02-22T14:36:46;7.72;;;5.35;;
29210;SDS011;16250;49.932;10.980;2023-02-22T14:53:05;8.25;;;5.90;;
29210;SDS011;16250;49.932;10.980;2023-02-22T14:55:36;7.85;;;5.22;;
29210;SDS011;16250;49.932;10.980;2023-02-22T14:58:13;6.35;;;4.80;;
29210;SDS011;16250;49.932;10.980;2023-02-22T15:00:44;6.60;;;4.88;;
29210;SDS011;16250;49.932;10.980;2023-02-22T15:08:47;9.45;;;5.65;;
29210;SDS011;16250;49.932;10.980;2023-02-22T15:11:21;7.25;;;5.55;;
29210;SDS011;16250;49.932;10.980;2023-02-22T15:13:55;8.45;;;5.55;;
29210;SDS011;16250;49.932;10.980;2023-02-22T15:16:22;9.02;;;6.50;;
29210;SDS011;16250;49.932;10.980;2023-02-22T15:18:51;8.52;;;5.63;;
29210;SDS011;16250;49.932;10.980;2023-02-22T15:21:19;9.10;;;6.13;;
29210;SDS011;16250;49.932;10.980;2023-02-22T15:23:46;7.53;;;5.72;;
29210;SDS011;16250;49.932;10.980;2023-02-22T15:29:09;7.78;;;5.63;;
29210;SDS011;16250;49.932;10.980;2023-02-22T15:31:38;8.45;;;6.00;;
29210;SDS011;16250;49.932;10.980;2023-02-22T15:34:25;9.15;;;6.10;;
29210;SDS011;16250;49.932;10.980;2023-02-22T15:36:52;12.60;;;6.50;;
29210;SDS011;16250;49.932;10.980;2023-02-22T15:39:20;8.38;;;6.07;;
29210;SDS011;16250;49.932;10.980;2023-02-22T15:42:07;8.45;;;6.00;;
29210;SDS011;16250;49.932;10.980;2023-02-22T15:44:38;8.57;;;5.68;;
29210;SDS011;16250;49.932;10.980;2023-02-22T15:47:05;11.07;;;6.22;;
29210;SDS011;16250;49.932;10.980;2023-02-22T15:49:31;8.40;;;6.00;;
29210;SDS011;16250;49.932;10.980;2023-02-22T15:52:03;8.20;;;5.85;;
29210;SDS011;16250;49.932;10.980;2023-02-22T15:54:38;13.05;;;6.50;;
29210;SDS011;16250;49.932;10.980;2023-02-22T15:57:06;11.02;;;6.18;;
29210;SDS011;16250;49.932;10.980;2023-02-22T15:59:36;11.82;;;5.88;;
29210;SDS011;16250;49.932;10.980;2023-02-22T16:02:05;9.15;;;5.93;;
29210;SDS011;16250;49.932;10.980;2023-02-22T16:04:31;9.60;;;6.18;;
29210;SDS011;16250;49.932;10.980;2023-02-22T16:07:01;8.88;;;6.10;;
29210;SDS011;16250;49.932;10.980;2023-02-22T16:09:32;8.43;;;6.05;;
29210;SDS011;16250;49.932;10.980;2023-02-22T16:12:08;7.82;;;5.88;;
29210;SDS011;16250;49.932;10.980;2023-02-22T16:14:46;11.23;;;6.43;;
29210;SDS011;16250;49.932;10.980;2023-02-22T16:22:37;9.82;;;6.50;;
29210;SDS011;16250;49.932;10.980;2023-02-22T16:30:34;9.80;;;7.57;;
29210;SDS011;16250;49.932;10.980;2023-02-22T16:33:04;10.55;;;7.93;;
29210;SDS011;16250;49.932;10.980;2023-02-22T16:35:37;13.05;;;9.05;;
29210;SDS011;16250;49.932;10.980;2023-02-22T16:38:07;10.60;;;9.23;;
29210;SDS011;16250;49.932;10.980;2023-02-22T16:40:41;12.25;;;10.30;;
29210;SDS011;16250;49.932;10.980;2023-02-22T16:43:11;16.92;;;10.57;;
29210;SDS011;16250;49.932;10.980;2023-02-22T16:45:39;13.38;;;12.00;;
29210;SDS011;16250;49.932;10.980;2023-02-22T16:48:12;14.57;;;13.07;;
29210;SDS011;16250;49.932;10.980;2023-02-22T16:50:41;14.98;;;13.57;;
29210;SDS011;16250;49.932;10.980;2023-02-22T16:53:06;16.45;;;14.75;;
29210;SDS011;16250;49.932;10.980;2023-02-22T16:55:32;17.85;;;16.25;;
29210;SDS011;16250;49.932;10.980;2023-02-22T16:58:00;19.13;;;17.17;;
29210;SDS011;16250;49.932;10.980;2023-02-22T17:00:26;18.38;;;16.77;;
29210;SDS011;16250;49.932;10.980;2023-02-22T17:03:01;20.38;;;18.48;;
29210;SDS011;16250;49.932;10.980;2023-02-22T17:05:29;19.63;;;18.02;;
29210;SDS011;16250;49.932;10.980;2023-02-22T17:08:00;21.00;;;19.10;;
29210;SDS011;16250;49.932;10.980;2023-02-22T17:10:26;21.17;;;19.27;;
29210;SDS011;16250;49.932;10.980;2023-02-22T17:12:51;20.13;;;18.52;;